createdAt,value
2019-05-11T00:02:22.019Z,15.35
2019-05-11T00:05:53.078Z,22.65
2019-05-11T00:09:22.480Z,12.40
2019-05-11T00:12:52.105Z,14.60
2019-05-11T00:16:21.950Z,16.80
2019-05-11T00:19:52.360Z,14.10
2019-05-11T00:23:21.969Z,17.50
2019-05-11T00:26:51.620Z,19.75
2019-05-11T00:30:21.020Z,15.83
2019-05-11T00:33:51.065Z,20.68
2019-05-11T00:37:21.190Z,15.60
2019-05-11T00:40:50.831Z,20.17
2019-05-11T00:44:21.178Z,19.00
2019-05-11T00:47:51.763Z,19.05
2019-05-11T00:51:22.466Z,27.15
2019-05-11T00:54:52.573Z,18.65
2019-05-11T00:58:21.919Z,27.98
2019-05-11T01:01:51.413Z,26.48
2019-05-11T01:05:21.119Z,30.12
2019-05-11T01:08:50.529Z,20.12
2019-05-11T01:12:20.323Z,15.72
2019-05-11T01:15:50.932Z,24.55
2019-05-11T01:19:21.122Z,50.10
2019-05-11T01:22:50.763Z,32.10
2019-05-11T01:26:20.533Z,26.52
2019-05-11T01:29:50.560Z,23.32
2019-05-11T01:33:19.726Z,22.27
2019-05-11T01:36:49.450Z,26.02
2019-05-11T01:40:19.780Z,18.65
2019-05-11T01:43:49.547Z,12.25
2019-05-11T01:47:19.335Z,20.62
2019-05-11T01:50:48.469Z,19.25
2019-05-11T01:54:17.892Z,15.38
2019-05-11T01:57:47.091Z,15.70
2019-05-11T02:01:17.592Z,20.32
2019-05-11T02:04:49.024Z,19.92
2019-05-11T02:08:18.340Z,45.80
2019-05-11T02:11:47.629Z,32.85
2019-05-11T02:15:17.904Z,29.35
2019-05-11T02:18:48.186Z,22.67
2019-05-11T02:22:18.274Z,17.48
2019-05-11T02:25:48.029Z,33.02
2019-05-11T02:29:17.823Z,51.95
2019-05-11T02:32:48.508Z,44.98
2019-05-11T02:36:18.462Z,27.20
2019-05-11T02:39:47.669Z,17.15
2019-05-11T02:43:18.240Z,21.77
2019-05-11T02:46:47.775Z,18.45
2019-05-11T02:50:17.424Z,17.10
2019-05-11T02:53:46.693Z,14.10
2019-05-11T02:57:16.642Z,15.88
2019-05-11T03:00:46.878Z,11.73
2019-05-11T03:04:16.369Z,13.22
2019-05-11T03:07:46.012Z,19.40
2019-05-11T03:11:16.166Z,14.75
2019-05-11T03:14:45.581Z,18.55
2019-05-11T03:18:14.877Z,13.13
2019-05-11T03:21:44.439Z,13.98
2019-05-11T03:25:13.710Z,13.15
2019-05-11T03:28:42.850Z,17.27
2019-05-11T03:32:12.441Z,13.78
2019-05-11T03:35:42.001Z,16.42
2019-05-11T03:39:11.718Z,14.78
2019-05-11T03:42:41.839Z,11.57
2019-05-11T03:46:11.525Z,19.75
2019-05-11T03:49:41.090Z,11.80
2019-05-11T03:53:11.451Z,23.47
2019-05-11T03:56:41.125Z,15.10
2019-05-11T04:00:10.981Z,12.98
2019-05-11T04:03:40.737Z,16.57
2019-05-11T04:07:11.338Z,20.97
2019-05-11T04:10:42.354Z,15.32
2019-05-11T04:14:12.161Z,15.45
2019-05-11T04:17:42.239Z,17.82
2019-05-11T04:21:12.789Z,17.15
2019-05-11T04:24:42.662Z,11.85
2019-05-11T04:28:13.251Z,15.25
2019-05-11T04:31:43.297Z,13.70
2019-05-11T04:35:12.987Z,11.93
2019-05-11T04:38:42.430Z,9.35
2019-05-11T04:42:12.464Z,11.15
2019-05-11T04:45:42.232Z,14.05
2019-05-11T04:49:11.703Z,14.23
2019-05-11T04:52:42.021Z,12.63
2019-05-11T04:56:11.509Z,13.50
2019-05-11T04:59:41.625Z,11.65
2019-05-11T05:03:11.373Z,15.43
2019-05-11T05:06:40.620Z,9.65
2019-05-11T05:10:13.953Z,44.90
2019-05-11T05:13:41.326Z,13.83
2019-05-11T05:17:11.619Z,9.25
2019-05-11T05:20:43.806Z,12.63
2019-05-11T05:24:12.259Z,6.67
2019-05-11T05:27:42.144Z,8.70
2019-05-11T05:31:12.425Z,12.82
2019-05-11T05:34:42.005Z,10.53
2019-05-11T05:38:12.414Z,15.53
2019-05-11T05:41:42.542Z,12.75
2019-05-11T05:45:12.986Z,9.70
2019-05-11T05:48:42.949Z,13.10
2019-05-11T05:52:12.562Z,11.78
2019-05-11T05:55:42.049Z,8.78
2019-05-11T05:59:11.158Z,11.48
2019-05-11T06:02:40.725Z,16.10
2019-05-11T06:06:10.912Z,11.38
2019-05-11T06:09:40.402Z,9.28
2019-05-11T06:13:10.038Z,12.13
2019-05-11T06:16:39.193Z,9.18
2019-05-11T06:20:09.145Z,10.03
2019-05-11T06:23:38.626Z,9.10
2019-05-11T06:27:07.805Z,9.18
2019-05-11T06:30:37.446Z,11.22
2019-05-11T06:34:07.144Z,14.93
2019-05-11T06:37:36.910Z,8.10
2019-05-11T06:41:06.469Z,13.28
2019-05-11T06:44:36.811Z,14.28
2019-05-11T06:48:06.693Z,17.55
2019-05-11T06:51:40.215Z,11.25
2019-05-11T06:55:08.347Z,11.05
2019-05-11T06:58:38.372Z,13.40
2019-05-11T07:02:08.731Z,8.88
2019-05-11T07:05:37.917Z,7.80
2019-05-11T07:09:07.761Z,8.95
2019-05-11T07:12:38.124Z,11.22
2019-05-11T07:16:08.110Z,7.97
2019-05-11T07:19:38.549Z,18.32
2019-05-11T07:23:08.489Z,10.35
2019-05-11T07:26:38.154Z,6.70
2019-05-11T07:30:08.070Z,9.18
2019-05-11T07:33:38.065Z,6.05
2019-05-11T07:37:08.478Z,10.72
2019-05-11T07:40:39.730Z,10.50
2019-05-11T07:44:10.191Z,10.55
2019-05-11T07:47:41.532Z,9.25
2019-05-11T07:51:11.592Z,11.38
2019-05-11T07:54:44.589Z,15.68
2019-05-11T07:58:14.879Z,11.03
2019-05-11T08:01:44.558Z,9.68
2019-05-11T08:05:14.800Z,6.33
2019-05-11T08:08:44.887Z,7.25
2019-05-11T08:12:14.542Z,6.60
2019-05-11T08:15:44.026Z,6.12
2019-05-11T08:19:13.982Z,6.47
2019-05-11T08:22:44.460Z,5.55
2019-05-11T08:26:14.245Z,7.67
2019-05-11T08:29:44.023Z,9.10
2019-05-11T08:33:14.010Z,7.62
2019-05-11T08:36:43.745Z,6.53
2019-05-11T08:40:13.355Z,10.72
2019-05-11T08:43:42.814Z,6.95
2019-05-11T08:47:12.113Z,6.85
2019-05-11T08:50:41.756Z,6.67
2019-05-11T08:54:11.947Z,6.28
2019-05-11T08:57:42.134Z,8.63
2019-05-11T09:01:11.571Z,7.10
2019-05-11T09:04:44.199Z,6.85
2019-05-11T09:08:14.071Z,11.80
2019-05-11T09:11:48.298Z,7.53
2019-05-11T09:15:32.484Z,8.08
2019-05-11T09:18:48.691Z,16.23
2019-05-11T09:22:19.228Z,10.25
2019-05-11T09:25:50.179Z,15.10
2019-05-11T09:29:20.793Z,10.23
2019-05-11T09:32:50.120Z,5.60
2019-05-11T09:36:20.457Z,6.97
2019-05-11T09:39:50.281Z,9.08
2019-05-11T09:43:19.311Z,6.37
2019-05-11T09:46:49.109Z,7.20
2019-05-11T09:50:19.618Z,6.97
2019-05-11T09:53:49.386Z,12.13
2019-05-11T09:57:19.744Z,6.60
2019-05-11T10:00:50.042Z,8.28
2019-05-11T10:04:20.281Z,7.10
2019-05-11T10:07:50.415Z,6.12
2019-05-11T10:14:38.802Z,8.18
2019-05-11T10:18:09.207Z,7.37
2019-05-11T10:26:31.691Z,9.70
2019-05-11T10:30:01.638Z,8.93
2019-05-11T10:33:33.240Z,9.60
2019-05-11T10:37:03.510Z,7.80
2019-05-11T10:40:33.531Z,8.63
2019-05-11T10:44:03.930Z,10.28
2019-05-11T10:47:34.356Z,7.40
2019-05-11T10:51:04.826Z,11.53
2019-05-11T10:54:35.673Z,7.60
2019-05-11T10:58:08.442Z,13.32
2019-05-11T11:01:38.074Z,6.85
2019-05-11T11:05:08.450Z,6.10
2019-05-11T11:08:38.962Z,7.00
2019-05-11T11:12:09.929Z,6.33
2019-05-11T11:15:40.165Z,8.95
2019-05-11T11:19:10.042Z,8.20
2019-05-11T11:22:44.054Z,12.07
2019-05-11T11:26:11.514Z,13.15
2019-05-11T11:29:41.840Z,8.58
2019-05-11T11:33:12.112Z,11.00
2019-05-11T11:36:42.557Z,10.20
2019-05-11T11:40:12.278Z,9.45
2019-05-11T11:43:42.603Z,6.60
2019-05-11T11:47:12.550Z,7.90
2019-05-11T11:50:42.775Z,7.83
2019-05-11T11:54:12.335Z,10.58
2019-05-11T11:57:42.996Z,6.87
2019-05-11T12:01:13.562Z,17.82
2019-05-11T12:04:44.022Z,14.28
2019-05-11T12:08:15.013Z,17.10
2019-05-11T12:11:45.146Z,12.10
2019-05-11T12:15:15.167Z,6.03
2019-05-11T12:18:45.092Z,10.72
2019-05-11T12:22:15.783Z,27.90
2019-05-11T12:25:53.593Z,19.60
2019-05-11T12:29:24.161Z,15.28
2019-05-11T12:32:54.291Z,7.67
2019-05-11T12:36:24.849Z,15.23
2019-05-11T12:39:55.044Z,24.00
2019-05-11T12:43:24.957Z,10.65
2019-05-11T12:46:58.144Z,6.05
2019-05-11T12:50:28.605Z,66.87
2019-05-11T12:53:59.867Z,13.25
2019-05-11T12:57:30.925Z,18.55
2019-05-11T13:01:01.173Z,23.10
2019-05-11T13:04:31.974Z,37.17
2019-05-11T13:08:02.475Z,35.88
2019-05-11T13:11:32.874Z,22.50
2019-05-11T13:15:04.704Z,26.37
2019-05-11T13:18:35.476Z,31.20
2019-05-11T13:22:07.737Z,28.75
2019-05-11T13:25:38.816Z,34.15
2019-05-11T13:29:09.128Z,14.18
2019-05-11T13:32:39.377Z,141.70
2019-05-11T13:36:10.602Z,147.45
2019-05-11T13:39:41.330Z,62.08
2019-05-11T13:43:11.556Z,31.40
2019-05-11T13:46:42.007Z,8.20
2019-05-11T13:50:12.605Z,11.20
2019-05-11T13:53:43.198Z,9.53
2019-05-11T13:57:13.096Z,12.40
2019-05-11T14:00:43.239Z,11.80
2019-05-11T14:04:14.210Z,10.20
2019-05-11T14:07:44.077Z,11.78
2019-05-11T14:11:14.113Z,33.50
2019-05-11T14:14:45.134Z,102.10
2019-05-11T14:18:17.762Z,51.30
2019-05-11T14:21:49.098Z,38.83
2019-05-11T14:25:20.202Z,32.48
2019-05-11T14:28:51.341Z,32.65
2019-05-11T14:32:22.640Z,16.05
2019-05-11T14:35:52.784Z,9.55
2019-05-11T14:39:22.737Z,9.13
2019-05-11T14:42:53.166Z,20.02
2019-05-11T14:46:23.372Z,50.58
2019-05-11T14:49:54.419Z,47.65
2019-05-11T14:53:25.103Z,29.87
2019-05-11T14:56:55.959Z,65.70
2019-05-11T15:00:25.991Z,52.55
2019-05-11T15:03:58.727Z,25.48
2019-05-11T15:45:30.564Z,48.23
2019-05-11T15:50:00.341Z,46.18
2019-05-11T15:54:31.663Z,26.85
2019-05-11T15:59:02.805Z,43.28
2019-05-11T16:08:03.361Z,35.60
2019-05-11T16:12:33.352Z,38.05
2019-05-11T16:17:04.035Z,20.92
2019-05-11T16:21:34.710Z,18.37
2019-05-11T16:26:04.935Z,32.05
2019-05-11T16:35:08.607Z,20.62
2019-05-11T16:39:38.553Z,97.90
2019-05-11T16:44:08.691Z,247.30
2019-05-11T16:48:38.827Z,153.90
2019-05-11T16:53:09.388Z,41.58
2019-05-11T16:57:39.770Z,122.53
2019-05-11T17:02:10.834Z,89.75
2019-05-11T17:06:41.485Z,123.28
2019-05-11T17:11:12.487Z,249.47
2019-05-11T17:15:43.134Z,435.15
2019-05-11T17:20:14.149Z,167.93
2019-05-11T17:24:44.978Z,65.30
2019-05-11T17:29:15.509Z,76.15
2019-05-11T17:33:47.689Z,87.70
2019-05-11T17:38:18.545Z,91.10
2019-05-11T17:42:48.980Z,55.23
2019-05-11T17:47:18.808Z,50.92
2019-05-11T17:56:18.993Z,44.05
2019-05-11T18:00:50.368Z,42.80
2019-05-11T18:05:20.488Z,124.85
2019-05-11T18:09:50.551Z,86.42
2019-05-11T18:14:21.130Z,196.78
2019-05-11T18:18:52.225Z,57.55
2019-05-11T18:23:22.148Z,155.10
2019-05-11T18:27:52.838Z,104.53
2019-05-11T18:32:22.838Z,143.17
2019-05-11T18:36:53.247Z,58.63
2019-05-11T18:41:23.719Z,42.30
2019-05-11T18:45:55.020Z,204.47
2019-05-11T18:54:57.857Z,62.75
2019-05-11T18:59:28.516Z,34.88
2019-05-11T19:04:00.115Z,98.92
2019-05-11T19:08:31.195Z,124.47
2019-05-11T19:13:01.404Z,77.00
2019-05-11T19:17:32.294Z,144.68
2019-05-11T19:22:03.204Z,64.35
2019-05-11T19:26:34.562Z,25.15
2019-05-11T19:31:08.367Z,249.15
2019-05-11T19:35:38.015Z,166.90
2019-05-11T19:40:09.516Z,31.23
2019-05-11T19:44:40.588Z,12.43
2019-05-11T19:49:11.437Z,12.47
2019-05-11T19:53:43.162Z,36.60
2019-05-11T20:02:42.240Z,42.33
2019-05-11T20:07:13.318Z,27.37
2019-05-11T20:16:13.276Z,59.55
2019-05-11T20:20:44.679Z,54.05
2019-05-11T20:25:18.033Z,150.12
2019-05-11T20:29:48.500Z,86.72
2019-05-11T20:34:19.135Z,27.48
2019-05-11T20:38:49.344Z,17.77
2019-05-11T20:43:20.000Z,23.85
2019-05-11T20:47:50.030Z,9.38
2019-05-11T20:52:20.842Z,18.87
2019-05-11T20:56:51.828Z,16.35
2019-05-11T21:01:23.846Z,12.80
2019-05-11T21:05:54.850Z,9.93
2019-05-11T21:10:27.875Z,12.95
2019-05-11T21:14:58.538Z,15.90
2019-05-11T21:19:29.576Z,52.80
2019-05-11T21:24:00.513Z,61.33
2019-05-11T21:28:31.457Z,22.05
2019-05-11T21:33:03.659Z,22.25
2019-05-11T21:37:33.946Z,21.02
2019-05-11T21:42:04.180Z,26.02
2019-05-11T21:46:34.378Z,39.40
2019-05-11T21:51:04.810Z,10.75
2019-05-11T22:00:09.479Z,15.15
2019-05-11T22:04:42.932Z,12.28
2019-05-11T22:09:14.148Z,11.73
2019-05-11T22:13:45.054Z,10.63
2019-05-11T22:18:29.815Z,10.40
2019-05-11T22:22:48.650Z,11.75
2019-05-11T22:27:19.243Z,13.70
2019-05-11T22:31:49.375Z,8.23
2019-05-11T22:36:19.728Z,18.20
2019-05-11T22:45:19.261Z,13.13
2019-05-11T22:49:49.846Z,67.75
2019-05-11T22:54:20.643Z,38.55
2019-05-11T22:58:51.732Z,11.57
2019-05-11T23:03:23.035Z,9.90
2019-05-11T23:07:53.561Z,10.15
2019-05-11T23:12:23.683Z,21.37
2019-05-11T23:16:54.122Z,17.42
2019-05-11T23:21:24.228Z,15.68
2019-05-11T23:25:54.287Z,26.80
2019-05-11T23:30:25.324Z,20.23
2019-05-11T23:34:55.481Z,28.30
2019-05-11T23:39:25.618Z,42.15
2019-05-11T23:43:58.215Z,29.42
2019-05-11T23:48:28.056Z,16.70
2019-05-11T23:53:06.599Z,18.02
2019-05-11T23:57:33.174Z,13.43
